createdAt,value
2019-04-14T00:01:26.386Z,8.85
2019-04-14T00:04:20.355Z,8.91
2019-04-14T00:06:51.091Z,8.91
2019-04-14T00:09:22.687Z,8.65
2019-04-14T00:11:53.135Z,8.71
2019-04-14T00:14:24.938Z,8.60
2019-04-14T00:16:55.497Z,8.71
2019-04-14T00:19:26.403Z,8.50
2019-04-14T00:22:00.883Z,8.18
2019-04-14T00:24:31.785Z,8.10
2019-04-14T00:27:02.489Z,8.29
2019-04-14T00:29:32.921Z,8.42
2019-04-14T00:32:05.082Z,8.43
2019-04-14T00:34:46.365Z,8.69
2019-04-14T00:37:35.912Z,8.43
2019-04-14T00:40:10.593Z,8.45
2019-04-14T00:43:07.016Z,8.73
2019-04-14T00:45:49.906Z,8.64
2019-04-14T00:48:20.862Z,8.34
2019-04-14T00:50:51.739Z,8.33
2019-04-14T00:53:22.880Z,8.60
2019-04-14T00:55:53.612Z,8.57
2019-04-14T00:58:23.884Z,8.52
2019-04-14T01:00:54.203Z,8.50
2019-04-14T01:03:24.770Z,8.47
2019-04-14T01:05:55.092Z,8.64
2019-04-14T01:08:25.362Z,8.68
2019-04-14T01:10:56.241Z,8.75
2019-04-14T01:13:26.858Z,8.62
2019-04-14T01:16:03.853Z,8.69
2019-04-14T01:18:29.902Z,8.66
2019-04-14T01:21:00.743Z,8.63
2019-04-14T01:23:31.013Z,8.69
2019-04-14T01:26:02.805Z,8.51
2019-04-14T01:28:33.450Z,8.45
2019-04-14T01:31:03.944Z,8.59
2019-04-14T01:33:34.351Z,8.65
2019-04-14T01:36:06.065Z,8.67
2019-04-14T01:38:36.521Z,8.71
2019-04-14T01:41:06.799Z,8.67
2019-04-14T01:43:38.561Z,8.72
2019-04-14T01:46:16.048Z,8.82
2019-04-14T01:48:41.080Z,8.87
2019-04-14T01:51:27.400Z,8.86
2019-04-14T01:54:21.317Z,8.88
2019-04-14T01:57:11.025Z,8.96
2019-04-14T01:59:41.621Z,9.15
2019-04-14T02:02:14.088Z,9.13
2019-04-14T02:04:46.401Z,9.00
2019-04-14T02:07:16.918Z,9.03
2019-04-14T02:09:47.220Z,9.12
2019-04-14T02:12:19.006Z,9.24
2019-04-14T02:14:49.700Z,9.27
2019-04-14T02:17:20.072Z,9.32
2019-04-14T02:19:50.515Z,9.37
2019-04-14T02:22:22.388Z,9.40
2019-04-14T02:24:52.932Z,9.44
2019-04-14T02:27:23.766Z,9.45
2019-04-14T02:29:54.068Z,9.41
2019-04-14T02:32:49.474Z,9.34
2019-04-14T02:38:08.852Z,9.44
2019-04-14T02:40:51.356Z,9.42
2019-04-14T02:45:34.801Z,9.45
2019-04-14T02:48:22.396Z,9.41
2019-04-14T02:53:24.082Z,9.36
2019-04-14T02:55:42.257Z,9.23
2019-04-14T02:58:20.508Z,9.23
2019-04-14T03:00:51.146Z,9.16
2019-04-14T03:03:24.096Z,9.13
2019-04-14T03:05:51.304Z,9.10
2019-04-14T03:08:26.034Z,9.09
2019-04-14T03:10:57.741Z,9.13
2019-04-14T03:13:28.920Z,9.08
2019-04-14T03:18:37.851Z,9.16
2019-04-14T03:21:45.197Z,9.19
2019-04-14T03:26:57.069Z,9.25
2019-04-14T03:29:28.362Z,9.25
2019-04-14T03:32:15.242Z,9.29
2019-04-14T03:37:28.998Z,9.35
2019-04-14T03:39:38.564Z,9.46
2019-04-14T03:42:13.077Z,9.43
2019-04-14T03:44:44.958Z,9.46
2019-04-14T03:47:13.608Z,9.37
2019-04-14T03:50:04.277Z,9.37
2019-04-14T03:52:27.127Z,8.82
2019-04-14T03:54:45.615Z,9.23
2019-04-14T03:56:55.919Z,9.11
2019-04-14T03:59:26.301Z,9.16
2019-04-14T04:01:57.055Z,9.13
2019-04-14T04:04:27.705Z,9.12
2019-04-14T04:06:58.043Z,9.00
2019-04-14T04:09:36.429Z,9.04
2019-04-14T04:12:07.502Z,9.06
2019-04-14T04:14:38.456Z,9.13
2019-04-14T04:17:34.265Z,9.09
2019-04-14T04:20:31.067Z,9.16
2019-04-14T04:23:29.420Z,9.17
2019-04-14T04:26:08.247Z,9.20
2019-04-14T04:29:00.429Z,9.29
2019-04-14T04:31:48.758Z,9.31
2019-04-14T04:34:38.089Z,9.29
2019-04-14T04:37:34.224Z,9.39
2019-04-14T04:40:11.385Z,9.36
2019-04-14T04:42:41.986Z,9.43
2019-04-14T04:45:12.839Z,9.44
2019-04-14T04:47:44.722Z,9.27
2019-04-14T04:50:15.245Z,9.30
2019-04-14T04:52:45.759Z,9.44
2019-04-14T04:55:17.751Z,9.45
2019-04-14T04:57:48.215Z,9.38
2019-04-14T05:00:19.719Z,9.57
2019-04-14T05:02:50.638Z,9.63
2019-04-14T05:05:57.599Z,9.83
2019-04-14T05:08:28.444Z,9.84
2019-04-14T05:11:29.407Z,9.89
2019-04-14T05:14:02.337Z,10.00
2019-04-14T05:16:33.069Z,10.24
2019-04-14T05:19:13.976Z,10.23
2019-04-14T05:21:36.669Z,10.43
2019-04-14T05:24:07.282Z,10.63
2019-04-14T05:26:37.629Z,10.71
2019-04-14T05:29:07.973Z,10.73
2019-04-14T05:31:38.442Z,10.98
2019-04-14T05:34:08.742Z,11.07
2019-04-14T05:36:39.051Z,10.66
2019-04-14T05:39:09.746Z,11.13
2019-04-14T05:41:47.966Z,11.38
2019-04-14T05:44:12.177Z,11.51
2019-04-14T05:46:43.010Z,11.45
2019-04-14T05:49:24.478Z,11.71
2019-04-14T05:51:45.976Z,11.75
2019-04-14T05:54:16.709Z,12.19
2019-04-14T05:56:47.179Z,12.14
2019-04-14T05:59:17.731Z,11.96
2019-04-14T06:01:49.080Z,12.03
2019-04-14T06:04:20.052Z,12.18
2019-04-14T06:06:50.355Z,12.19
2019-04-14T06:09:20.822Z,12.33
2019-04-14T06:11:51.598Z,12.28
2019-04-14T06:14:21.916Z,12.29
2019-04-14T06:16:52.353Z,12.36
2019-04-14T06:19:22.791Z,12.24
2019-04-14T06:21:53.498Z,12.21
2019-04-14T06:24:24.180Z,12.37
2019-04-14T06:26:54.450Z,12.33
2019-04-14T06:29:24.826Z,12.46
2019-04-14T06:32:29.622Z,12.73
2019-04-14T06:35:25.802Z,12.74
2019-04-14T06:37:59.810Z,12.64
2019-04-14T06:40:41.060Z,12.89
2019-04-14T06:43:11.780Z,12.96
2019-04-14T06:45:42.149Z,13.17
2019-04-14T06:48:12.894Z,13.13
2019-04-14T06:50:43.424Z,13.20
2019-04-14T06:53:15.777Z,13.03
2019-04-14T06:55:46.115Z,12.90
2019-04-14T06:58:16.425Z,13.10
2019-04-14T07:00:46.979Z,13.17
2019-04-14T07:03:17.305Z,13.22
2019-04-14T07:05:48.668Z,13.13
2019-04-14T07:08:19.364Z,13.16
2019-04-14T07:10:49.685Z,13.10
2019-04-14T07:13:20.027Z,13.47
2019-04-14T07:15:50.671Z,13.24
2019-04-14T07:18:21.273Z,13.26
2019-04-14T07:20:51.590Z,13.23
2019-04-14T07:23:22.389Z,13.35
2019-04-14T07:25:52.657Z,13.19
2019-04-14T07:28:23.067Z,12.82
2019-04-14T07:31:18.883Z,12.99
2019-04-14T07:34:23.234Z,12.98
2019-04-14T07:37:11.699Z,13.23
2019-04-14T07:39:55.434Z,13.03
2019-04-14T07:42:43.576Z,13.11
2019-04-14T07:45:35.947Z,13.28
2019-04-14T07:48:11.942Z,13.34
2019-04-14T07:51:00.077Z,13.06
2019-04-14T07:54:01.587Z,13.61
2019-04-14T07:56:49.514Z,13.78
2019-04-14T07:59:32.469Z,14.17
2019-04-14T08:02:15.514Z,14.03
2019-04-14T08:04:59.301Z,14.39
2019-04-14T08:07:30.005Z,14.36
2019-04-14T08:10:00.808Z,14.51
2019-04-14T08:12:31.211Z,14.66
2019-04-14T08:15:01.599Z,14.30
2019-04-14T08:17:33.645Z,14.83
2019-04-14T08:20:04.103Z,14.78
2019-04-14T08:22:34.413Z,14.73
2019-04-14T08:25:05.711Z,14.80
2019-04-14T08:27:37.129Z,14.89
2019-04-14T08:30:08.381Z,14.79
2019-04-14T08:32:38.873Z,14.89
2019-04-14T08:35:10.147Z,14.96
2019-04-14T08:37:40.858Z,15.41
2019-04-14T08:40:11.343Z,15.35
2019-04-14T08:43:01.632Z,15.31
2019-04-14T08:45:54.029Z,15.56
2019-04-14T08:51:53.357Z,15.42
2019-04-14T08:54:48.574Z,15.13
2019-04-14T08:57:26.662Z,15.21
2019-04-14T09:00:17.267Z,15.24
2019-04-14T09:03:06.873Z,15.45
2019-04-14T09:05:59.304Z,15.39
2019-04-14T09:08:33.709Z,15.70
2019-04-14T09:11:05.626Z,15.23
2019-04-14T09:13:35.924Z,15.19
2019-04-14T09:16:07.642Z,15.36
2019-04-14T09:18:38.121Z,15.33
2019-04-14T09:21:43.465Z,15.37
2019-04-14T09:24:14.045Z,15.32
2019-04-14T09:26:44.748Z,15.41
2019-04-14T09:29:15.067Z,15.54
2019-04-14T09:31:45.840Z,15.77
2019-04-14T09:34:16.544Z,15.33
2019-04-14T09:36:47.903Z,15.36
2019-04-14T09:39:18.413Z,15.39
2019-04-14T09:41:48.792Z,15.64
2019-04-14T09:44:19.487Z,15.85
2019-04-14T09:46:49.902Z,16.12
2019-04-14T09:49:20.192Z,16.31
2019-04-14T09:51:50.606Z,16.16
2019-04-14T09:54:21.354Z,16.25
2019-04-14T09:56:51.644Z,16.33
2019-04-14T09:59:22.093Z,16.56
2019-04-14T10:01:52.785Z,16.64
2019-04-14T10:04:23.128Z,16.95
2019-04-14T10:06:53.527Z,17.19
2019-04-14T10:09:24.310Z,17.46
2019-04-14T10:11:56.446Z,17.43
2019-04-14T10:14:26.636Z,18.06
2019-04-14T10:16:57.284Z,18.04
2019-04-14T10:19:27.664Z,18.18
2019-04-14T10:21:58.002Z,18.46
2019-04-14T10:24:28.683Z,19.02
2019-04-14T10:26:59.397Z,19.07
2019-04-14T10:29:29.751Z,19.63
2019-04-14T10:32:00.401Z,19.51
2019-04-14T10:34:31.005Z,19.69
2019-04-14T10:37:01.480Z,19.58
2019-04-14T10:39:31.953Z,19.58
2019-04-14T10:42:02.633Z,20.07
2019-04-14T10:44:35.216Z,20.11
2019-04-14T10:47:05.733Z,19.49
2019-04-14T10:49:36.058Z,18.65
2019-04-14T10:52:06.758Z,18.65
2019-04-14T10:54:37.437Z,18.13
2019-04-14T10:57:07.741Z,17.92
2019-04-14T10:59:38.187Z,18.31
2019-04-14T11:02:08.972Z,18.13
2019-04-14T11:04:40.323Z,17.68
2019-04-14T11:07:14.494Z,18.04
2019-04-14T11:09:45.223Z,17.91
2019-04-14T11:12:15.537Z,17.67
2019-04-14T11:14:45.871Z,18.42
2019-04-14T11:17:16.572Z,18.62
2019-04-14T11:19:46.934Z,18.21
2019-04-14T11:22:17.617Z,18.10
2019-04-14T11:24:47.938Z,17.56
2019-04-14T11:27:18.255Z,17.79
2019-04-14T11:29:53.856Z,18.14
2019-04-14T11:32:39.573Z,17.56
2019-04-14T11:35:20.091Z,18.00
2019-04-14T11:38:09.702Z,17.42
2019-04-14T11:40:48.797Z,17.26
2019-04-14T11:43:19.121Z,17.72
2019-04-14T11:45:49.537Z,18.43
2019-04-14T11:48:20.372Z,18.25
2019-04-14T11:50:50.965Z,18.67
2019-04-14T11:53:21.367Z,18.52
2019-04-14T11:55:51.717Z,18.40
2019-04-14T11:58:22.392Z,18.40
2019-04-14T12:01:10.543Z,18.48
2019-04-14T12:04:05.915Z,18.41
2019-04-14T12:06:53.320Z,18.22
2019-04-14T12:09:49.827Z,18.46
2019-04-14T12:12:20.236Z,17.95
2019-04-14T12:14:50.654Z,18.03
2019-04-14T12:17:21.397Z,17.75
2019-04-14T12:19:51.741Z,17.32
2019-04-14T12:22:22.329Z,17.37
2019-04-14T12:24:52.781Z,16.85
2019-04-14T12:27:23.535Z,16.91
2019-04-14T12:29:54.513Z,17.17
2019-04-14T12:32:25.119Z,16.98
2019-04-14T12:34:56.237Z,16.90
2019-04-14T12:37:27.087Z,16.74
2019-04-14T12:39:57.589Z,16.71
2019-04-14T12:42:36.179Z,16.96
2019-04-14T12:45:30.614Z,17.72
2019-04-14T12:48:18.615Z,17.58
2019-04-14T12:51:04.799Z,17.97
2019-04-14T12:53:36.571Z,17.93
2019-04-14T12:56:07.064Z,17.91
2019-04-14T12:58:59.830Z,17.96
2019-04-14T13:01:31.792Z,17.60
2019-04-14T13:04:02.186Z,17.22
2019-04-14T13:06:33.034Z,17.42
2019-04-14T13:09:04.704Z,17.95
2019-04-14T13:11:36.622Z,18.22
2019-04-14T13:14:07.188Z,18.39
2019-04-14T13:16:38.523Z,17.80
2019-04-14T13:19:08.987Z,17.64
2019-04-14T13:21:40.585Z,17.81
2019-04-14T13:24:11.262Z,17.75
2019-04-14T13:26:42.001Z,18.08
2019-04-14T13:29:12.769Z,18.00
2019-04-14T13:31:43.086Z,17.75
2019-04-14T13:34:13.675Z,16.30
2019-04-14T13:36:43.957Z,15.93
2019-04-14T13:39:14.375Z,16.36
2019-04-14T13:41:44.836Z,17.21
2019-04-14T13:44:15.227Z,17.80
2019-04-14T13:46:45.708Z,17.55
2019-04-14T13:49:16.441Z,17.16
2019-04-14T13:51:47.124Z,15.98
2019-04-14T13:54:17.627Z,15.89
2019-04-14T13:56:48.325Z,16.45
2019-04-14T13:59:19.023Z,16.71
2019-04-14T14:01:49.454Z,17.28
2019-04-14T14:04:19.888Z,17.79
2019-04-14T14:06:50.264Z,18.31
2019-04-14T14:09:20.902Z,19.03
2019-04-14T14:12:00.179Z,19.10
2019-04-14T14:14:49.428Z,19.53
2019-04-14T14:17:51.190Z,19.77
2019-04-14T14:20:46.243Z,19.77
2019-04-14T14:23:35.557Z,19.98
2019-04-14T14:26:09.159Z,20.23
2019-04-14T14:28:39.929Z,20.52
2019-04-14T14:31:10.372Z,20.43
2019-04-14T14:33:40.786Z,20.43
2019-04-14T14:36:11.552Z,19.79
2019-04-14T14:38:41.878Z,20.13
2019-04-14T14:41:14.785Z,20.43
2019-04-14T14:43:45.550Z,20.56
2019-04-14T14:46:33.666Z,20.69
2019-04-14T14:49:32.149Z,19.80
2019-04-14T14:52:08.316Z,19.97
2019-04-14T14:54:38.977Z,19.65
2019-04-14T14:57:09.261Z,19.14
2019-04-14T14:59:39.992Z,19.07
2019-04-14T15:02:10.352Z,19.07
2019-04-14T15:04:40.693Z,18.49
2019-04-14T15:07:11.032Z,17.24
2019-04-14T15:09:41.386Z,16.22
2019-04-14T15:12:11.958Z,16.15
2019-04-14T15:14:42.507Z,15.48
2019-04-14T15:17:12.794Z,15.66
2019-04-14T15:19:43.561Z,14.64
2019-04-14T15:22:14.333Z,14.38
2019-04-14T15:24:44.633Z,14.02
2019-04-14T15:27:15.258Z,13.89
2019-04-14T15:29:45.965Z,13.61
2019-04-14T15:32:16.295Z,13.39
2019-04-14T15:34:46.593Z,13.27
2019-04-14T15:37:17.285Z,13.06
2019-04-14T15:39:47.657Z,13.09
2019-04-14T15:42:19.486Z,13.20
2019-04-14T15:44:49.773Z,13.21
2019-04-14T15:47:20.240Z,13.03
2019-04-14T15:49:51.077Z,12.98
2019-04-14T15:52:21.357Z,12.89
2019-04-14T15:54:51.712Z,12.95
2019-04-14T15:57:29.924Z,13.19
2019-04-14T16:00:09.578Z,12.83
2019-04-14T16:03:10.635Z,12.46
2019-04-14T16:06:05.751Z,12.46
2019-04-14T16:08:55.205Z,12.55
2019-04-14T16:11:36.827Z,12.44
2019-04-14T16:14:25.418Z,12.60
2019-04-14T16:17:13.836Z,12.65
2019-04-14T16:19:48.416Z,12.56
2019-04-14T16:22:18.884Z,12.50
2019-04-14T16:24:49.172Z,12.39
2019-04-14T16:27:32.305Z,12.65
2019-04-14T16:30:27.772Z,12.66
2019-04-14T16:33:13.043Z,12.39
2019-04-14T16:35:44.245Z,12.39
2019-04-14T16:38:14.957Z,12.22
2019-04-14T16:40:45.233Z,12.15
2019-04-14T16:43:15.936Z,12.22
2019-04-14T16:45:46.754Z,12.16
2019-04-14T16:48:17.153Z,12.08
2019-04-14T16:50:47.801Z,12.01
2019-04-14T16:53:23.257Z,11.88
2019-04-14T16:56:18.761Z,11.90
2019-04-14T16:58:54.686Z,11.81
2019-04-14T17:01:30.449Z,11.89
2019-04-14T17:04:00.833Z,11.81
2019-04-14T17:06:31.744Z,11.74
2019-04-14T17:09:02.080Z,11.37
2019-04-14T17:11:34.223Z,11.50
2019-04-14T17:14:11.850Z,11.44
2019-04-14T17:17:16.150Z,11.46
2019-04-14T17:20:08.418Z,11.62
2019-04-14T17:22:50.546Z,11.35
2019-04-14T17:25:28.979Z,11.27
2019-04-14T17:28:18.410Z,11.39
2019-04-14T17:30:59.007Z,11.42
2019-04-14T17:33:37.214Z,11.23
2019-04-14T17:36:25.636Z,11.26
2019-04-14T17:39:20.114Z,11.38
2019-04-14T17:41:58.847Z,11.25
2019-04-14T17:44:37.815Z,11.20
2019-04-14T17:47:29.890Z,11.22
2019-04-14T17:50:21.894Z,11.18
2019-04-14T17:53:11.501Z,11.24
2019-04-14T17:55:50.343Z,11.30
2019-04-14T17:58:28.129Z,11.37
2019-04-14T18:01:21.000Z,11.21
2019-04-14T18:03:59.159Z,11.18
2019-04-14T18:06:34.626Z,11.25
2019-04-14T18:09:29.167Z,11.13
2019-04-14T18:12:27.888Z,11.11
2019-04-14T18:15:23.264Z,11.13
2019-04-14T18:18:11.784Z,10.95
2019-04-14T18:20:45.277Z,11.00
2019-04-14T18:23:15.824Z,10.93
2019-04-14T18:25:46.414Z,10.89
2019-04-14T18:28:35.642Z,10.97
2019-04-14T18:31:23.304Z,10.85
2019-04-14T18:34:00.490Z,10.89
2019-04-14T18:36:50.136Z,10.97
2019-04-14T18:39:38.627Z,11.16
2019-04-14T18:42:31.347Z,11.03
2019-04-14T18:45:16.809Z,10.96
2019-04-14T18:47:50.691Z,10.89
2019-04-14T18:50:30.403Z,10.97
2019-04-14T18:53:05.086Z,11.00
2019-04-14T18:55:53.084Z,10.83
2019-04-14T18:58:51.029Z,10.90
2019-04-14T19:01:24.039Z,11.09
2019-04-14T19:03:54.772Z,11.03
2019-04-14T19:06:25.071Z,11.09
2019-04-14T19:08:55.407Z,11.13
2019-04-14T19:11:43.719Z,11.11
2019-04-14T19:14:17.809Z,11.16
2019-04-14T19:16:52.551Z,11.28
2019-04-14T19:19:23.113Z,11.11
2019-04-14T19:21:53.621Z,11.07
2019-04-14T19:24:23.949Z,11.08
2019-04-14T19:26:54.352Z,11.06
2019-04-14T19:29:27.535Z,11.16
2019-04-14T19:31:56.728Z,10.97
2019-04-14T19:34:27.440Z,11.04
2019-04-14T19:36:58.178Z,11.04
2019-04-14T19:39:28.503Z,11.08
2019-04-14T19:41:59.045Z,11.05
2019-04-14T19:44:29.376Z,10.86
2019-04-14T19:47:00.157Z,10.80
2019-04-14T19:49:30.773Z,10.74
2019-04-14T19:52:02.397Z,10.84
2019-04-14T19:54:33.074Z,10.78
2019-04-14T19:57:03.504Z,10.71
2019-04-14T19:59:33.809Z,10.78
2019-04-14T20:02:04.284Z,10.70
2019-04-14T20:04:34.830Z,10.81
2019-04-14T20:07:05.158Z,10.61
2019-04-14T20:09:35.507Z,10.52
2019-04-14T20:12:06.679Z,10.52
2019-04-14T20:14:38.468Z,10.47
2019-04-14T20:17:24.947Z,10.55
2019-04-14T20:20:14.325Z,10.41
2019-04-14T20:23:01.786Z,10.25
2019-04-14T20:25:51.161Z,10.34
2019-04-14T20:28:40.409Z,10.32
2019-04-14T20:31:35.326Z,10.31
2019-04-14T20:34:06.253Z,10.29
2019-04-14T20:36:36.572Z,10.24
2019-04-14T20:39:10.748Z,10.26
2019-04-14T20:41:41.746Z,10.24
2019-04-14T20:44:12.711Z,10.14
2019-04-14T20:46:43.538Z,10.18
2019-04-14T20:49:14.027Z,10.16
2019-04-14T20:51:44.492Z,10.03
2019-04-14T20:54:15.228Z,10.02
2019-04-14T20:56:45.575Z,10.06
2019-04-14T20:59:16.018Z,10.16
2019-04-14T21:02:11.566Z,10.17
2019-04-14T21:04:55.698Z,10.16
2019-04-14T21:07:41.329Z,10.20
2019-04-14T21:10:26.510Z,10.08
2019-04-14T21:13:05.971Z,10.05
2019-04-14T21:15:43.247Z,10.05
2019-04-14T21:18:31.423Z,10.08
2019-04-14T21:21:32.351Z,10.10
2019-04-14T21:24:39.939Z,10.08
2019-04-14T21:27:29.522Z,10.17
2019-04-14T21:30:24.855Z,10.09
2019-04-14T21:33:02.439Z,10.01
2019-04-14T21:36:07.212Z,10.11
2019-04-14T21:38:45.848Z,10.14
2019-04-14T21:41:22.335Z,10.08
2019-04-14T21:43:53.103Z,10.45
2019-04-14T21:46:23.522Z,10.30
2019-04-14T21:48:53.916Z,10.43
2019-04-14T21:51:29.980Z,10.41
2019-04-14T21:54:00.294Z,10.31
2019-04-14T21:56:33.385Z,10.24
2019-04-14T21:59:10.498Z,10.39
2019-04-14T22:01:58.894Z,10.37
2019-04-14T22:04:46.987Z,10.34
2019-04-14T22:07:41.863Z,10.28
2019-04-14T22:10:36.600Z,10.19
2019-04-14T22:13:07.288Z,10.31
2019-04-14T22:15:37.570Z,10.18
2019-04-14T22:18:08.246Z,10.29
2019-04-14T22:20:38.682Z,10.24
2019-04-14T22:23:11.936Z,10.31
2019-04-14T22:25:42.268Z,10.24
2019-04-14T22:28:12.866Z,10.15
2019-04-14T22:30:43.965Z,10.19
2019-04-14T22:33:14.661Z,10.21
2019-04-14T22:35:44.988Z,10.20
2019-04-14T22:38:15.297Z,10.14
2019-04-14T22:40:45.979Z,10.00
2019-04-14T22:43:16.287Z,10.05
2019-04-14T22:45:46.608Z,10.16
2019-04-14T22:48:17.488Z,10.23
2019-04-14T22:50:47.812Z,10.21
2019-04-14T22:53:19.072Z,10.19
2019-04-14T22:55:49.829Z,10.23
2019-04-14T22:58:20.498Z,10.21
2019-04-14T23:01:09.029Z,10.09
2019-04-14T23:03:56.624Z,10.21
2019-04-14T23:06:48.665Z,10.32
2019-04-14T23:09:27.452Z,10.39
2019-04-14T23:12:19.966Z,10.38
2019-04-14T23:15:11.992Z,10.42
2019-04-14T23:17:47.149Z,10.38
2019-04-14T23:20:35.002Z,10.28
2019-04-14T23:23:32.918Z,10.19
2019-04-14T23:26:03.593Z,10.20
2019-04-14T23:28:34.139Z,10.17
2019-04-14T23:31:04.411Z,9.98
2019-04-14T23:33:34.890Z,9.93
2019-04-14T23:36:05.679Z,9.95
2019-04-14T23:38:36.017Z,9.97
2019-04-14T23:41:06.312Z,9.95
2019-04-14T23:43:37.105Z,8.03
2019-04-14T23:46:07.378Z,10.03
2019-04-14T23:48:37.700Z,9.99
2019-04-14T23:51:08.394Z,9.96
2019-04-14T23:53:38.968Z,9.82
2019-04-14T23:56:09.254Z,9.97
2019-04-14T23:58:40.181Z,9.81
